createdAt,value
2022-09-04T00:01:26.488Z,20.90
2022-09-04T00:04:01.994Z,21.00
2022-09-04T00:06:33.965Z,20.90
2022-09-04T00:09:09.522Z,20.90
2022-09-04T00:11:44.978Z,20.80
2022-09-04T00:14:18.844Z,20.80
2022-09-04T00:16:55.010Z,20.60
2022-09-04T00:19:28.965Z,20.70
2022-09-04T00:22:00.743Z,20.60
2022-09-04T00:24:33.395Z,20.70
2022-09-04T00:27:08.660Z,20.70
2022-09-04T00:29:44.595Z,20.70
2022-09-04T00:32:21.048Z,20.60
2022-09-04T00:35:06.626Z,20.60
2022-09-04T00:37:38.360Z,20.60
2022-09-04T00:40:11.498Z,20.60
2022-09-04T00:42:55.865Z,20.50
2022-09-04T00:45:37.846Z,20.60
2022-09-04T00:48:37.411Z,20.50
2022-09-04T00:51:21.091Z,20.50
2022-09-04T00:54:33.677Z,20.40
2022-09-04T00:57:21.096Z,20.40
2022-09-04T01:00:03.712Z,20.30
2022-09-04T01:02:44.640Z,20.30
2022-09-04T01:05:24.118Z,20.30
2022-09-04T01:08:08.095Z,20.40
2022-09-04T01:10:45.231Z,20.20
2022-09-04T01:13:19.872Z,20.30
2022-09-04T01:15:53.511Z,20.30
2022-09-04T01:18:28.202Z,20.20
2022-09-04T01:21:40.810Z,20.20
2022-09-04T01:24:40.086Z,20.10
2022-09-04T01:27:17.022Z,20.10
2022-09-04T01:29:53.812Z,20.30
2022-09-04T01:32:31.522Z,20.30
2022-09-04T01:35:07.060Z,20.20
2022-09-04T01:37:47.549Z,20.20
2022-09-04T01:40:39.776Z,20.20
2022-09-04T01:43:12.534Z,20.20
2022-09-04T01:46:10.607Z,20.20
2022-09-04T01:48:46.349Z,20.10
2022-09-04T01:51:23.095Z,20.30
2022-09-04T01:54:01.568Z,20.10
2022-09-04T01:56:36.753Z,20.10
2022-09-04T01:59:12.822Z,20.10
2022-09-04T02:01:48.410Z,20.10
2022-09-04T02:04:23.192Z,20.10
2022-09-04T02:07:02.400Z,20.10
2022-09-04T02:09:38.381Z,20.10
2022-09-04T02:12:20.977Z,20.10
2022-09-04T02:15:00.691Z,20.10
2022-09-04T02:17:38.585Z,20.00
2022-09-04T02:20:18.241Z,19.90
2022-09-04T02:22:55.743Z,19.90
2022-09-04T02:25:31.579Z,19.80
2022-09-04T02:28:15.363Z,19.70
2022-09-04T02:30:54.303Z,19.80
2022-09-04T02:33:30.083Z,19.80
2022-09-04T02:36:03.822Z,19.80
2022-09-04T02:38:39.650Z,19.70
2022-09-04T02:41:17.408Z,19.70
2022-09-04T02:43:59.125Z,19.70
2022-09-04T02:46:34.613Z,19.60
2022-09-04T02:49:13.227Z,19.60
2022-09-04T02:51:54.325Z,19.70
2022-09-04T02:54:40.318Z,19.60
2022-09-04T02:57:17.597Z,19.60
2022-09-04T02:59:59.661Z,19.60
2022-09-04T03:02:34.057Z,19.60
2022-09-04T03:05:09.597Z,19.50
2022-09-04T03:07:42.180Z,19.50
2022-09-04T03:10:16.560Z,19.50
2022-09-04T03:12:51.647Z,19.50
2022-09-04T03:15:28.326Z,19.50
2022-09-04T03:18:06.005Z,19.50
2022-09-04T03:20:42.212Z,19.50
2022-09-04T03:23:16.819Z,19.50
2022-09-04T03:25:54.488Z,19.50
2022-09-04T03:28:33.109Z,19.50
2022-09-04T03:31:19.695Z,19.50
2022-09-04T03:33:58.143Z,19.50
2022-09-04T03:36:40.198Z,19.50
2022-09-04T03:39:14.753Z,19.40
2022-09-04T03:41:50.823Z,19.60
2022-09-04T03:44:28.638Z,19.50
2022-09-04T03:47:06.694Z,19.50
2022-09-04T03:49:46.168Z,19.40
2022-09-04T03:52:24.093Z,19.40
2022-09-04T03:55:07.056Z,19.40
2022-09-04T03:58:04.190Z,19.40
2022-09-04T04:00:43.056Z,19.30
2022-09-04T04:03:34.782Z,19.40
2022-09-04T04:06:14.856Z,19.30
2022-09-04T04:09:11.865Z,19.30
2022-09-04T04:11:55.625Z,19.30
2022-09-04T04:14:51.449Z,19.30
2022-09-04T04:17:44.740Z,19.30
2022-09-04T04:20:27.183Z,19.30
2022-09-04T04:23:25.584Z,19.30
2022-09-04T04:26:08.791Z,19.30
2022-09-04T04:29:03.650Z,19.30
2022-09-04T04:31:46.269Z,19.30
2022-09-04T04:34:24.477Z,19.30
2022-09-04T04:36:59.880Z,19.30
2022-09-04T04:39:36.720Z,19.30
2022-09-04T04:42:15.374Z,19.20
2022-09-04T04:45:21.146Z,19.10
2022-09-04T04:48:24.216Z,19.20
2022-09-04T04:50:59.586Z,19.20
2022-09-04T04:53:32.771Z,19.20
2022-09-04T04:56:15.425Z,19.20
2022-09-04T04:58:59.485Z,19.20
2022-09-04T05:01:42.449Z,19.20
2022-09-04T05:04:21.347Z,19.20
2022-09-04T05:06:55.865Z,19.20
2022-09-04T05:09:33.728Z,19.30
2022-09-04T05:12:13.930Z,19.30
2022-09-04T05:14:50.216Z,19.20
2022-09-04T05:17:32.888Z,19.20
2022-09-04T05:20:22.746Z,19.10
2022-09-04T05:22:57.875Z,19.10
2022-09-04T05:25:36.404Z,19.20
2022-09-04T05:28:21.670Z,19.10
2022-09-04T05:30:57.437Z,19.10
2022-09-04T05:33:35.560Z,19.20
2022-09-04T05:36:13.455Z,19.20
2022-09-04T05:38:51.285Z,19.20
2022-09-04T05:41:35.684Z,19.30
2022-09-04T05:44:21.495Z,19.20
2022-09-04T05:47:00.572Z,19.10
2022-09-04T05:49:45.677Z,19.20
2022-09-04T05:52:36.155Z,19.20
2022-09-04T05:55:32.412Z,19.20
2022-09-04T05:58:31.930Z,19.30
2022-09-04T06:01:13.649Z,19.30
2022-09-04T06:04:07.388Z,19.40
2022-09-04T06:06:43.649Z,19.40
2022-09-04T06:09:25.208Z,19.50
2022-09-04T06:12:26.069Z,19.50
2022-09-04T06:15:22.853Z,19.60
2022-09-04T06:18:12.211Z,19.60
2022-09-04T06:20:55.537Z,19.70
2022-09-04T06:23:56.965Z,19.80
2022-09-04T06:27:01.563Z,19.80
2022-09-04T06:29:44.017Z,19.90
2022-09-04T06:32:40.271Z,20.00
2022-09-04T06:35:29.331Z,20.00
2022-09-04T06:38:19.391Z,20.10
2022-09-04T06:40:59.621Z,20.30
2022-09-04T06:43:38.023Z,20.20
2022-09-04T06:46:20.016Z,20.30
2022-09-04T06:48:58.520Z,20.40
2022-09-04T06:51:44.154Z,20.40
2022-09-04T06:54:19.861Z,20.60
2022-09-04T06:57:14.969Z,20.50
2022-09-04T07:00:06.293Z,20.60
2022-09-04T07:02:50.262Z,20.60
2022-09-04T07:05:26.434Z,20.70
2022-09-04T07:08:08.948Z,20.70
2022-09-04T07:10:41.128Z,20.80
2022-09-04T07:13:33.969Z,20.80
2022-09-04T07:16:35.301Z,20.80
2022-09-04T07:19:20.324Z,21.00
2022-09-04T07:22:03.879Z,21.10
2022-09-04T07:24:48.235Z,21.10
2022-09-04T07:27:22.009Z,21.10
2022-09-04T07:29:58.656Z,21.20
2022-09-04T07:32:34.810Z,21.30
2022-09-04T07:35:11.676Z,21.40
2022-09-04T07:37:50.151Z,21.40
2022-09-04T07:40:23.585Z,21.40
2022-09-04T07:43:06.005Z,21.50
2022-09-04T07:45:38.493Z,21.50
2022-09-04T07:48:19.026Z,21.60
2022-09-04T07:51:04.890Z,21.50
2022-09-04T07:54:05.049Z,21.70
2022-09-04T07:56:54.616Z,21.70
2022-09-04T07:59:47.492Z,21.80
2022-09-04T08:02:35.399Z,21.80
2022-09-04T08:05:20.875Z,22.00
2022-09-04T08:08:04.736Z,22.10
2022-09-04T08:10:42.469Z,22.10
2022-09-04T08:13:28.320Z,22.10
2022-09-04T08:16:07.706Z,22.10
2022-09-04T08:18:55.322Z,22.20
2022-09-04T08:21:29.842Z,22.30
2022-09-04T08:24:33.006Z,22.30
2022-09-04T08:27:20.876Z,22.40
2022-09-04T08:30:04.302Z,22.50
2022-09-04T08:33:10.221Z,22.60
2022-09-04T08:35:45.890Z,22.70
2022-09-04T08:38:25.527Z,22.70
2022-09-04T08:41:29.027Z,22.80
2022-09-04T08:44:39.952Z,22.90
2022-09-04T08:48:02.095Z,23.00
2022-09-04T08:51:05.219Z,23.20
2022-09-04T08:54:04.468Z,23.30
2022-09-04T08:56:40.967Z,23.50
2022-09-04T08:59:42.653Z,23.60
2022-09-04T09:02:40.695Z,23.70
2022-09-04T09:05:30.891Z,23.70
2022-09-04T09:08:33.204Z,23.80
2022-09-04T09:11:30.288Z,23.80
2022-09-04T09:14:28.974Z,23.90
2022-09-04T09:17:13.119Z,23.90
2022-09-04T09:19:51.744Z,24.00
2022-09-04T09:22:39.111Z,24.10
2022-09-04T09:25:20.908Z,24.10
2022-09-04T09:28:16.076Z,24.30
2022-09-04T09:31:18.402Z,24.40
2022-09-04T09:34:11.668Z,24.60
2022-09-04T09:37:14.638Z,24.60
2022-09-04T09:40:05.040Z,24.70
2022-09-04T09:43:04.973Z,24.90
2022-09-04T09:45:50.578Z,25.00
2022-09-04T09:48:51.011Z,25.10
2022-09-04T09:51:57.185Z,25.30
2022-09-04T09:54:59.282Z,25.30
2022-09-04T10:01:04.318Z,25.70
2022-09-04T10:04:11.949Z,25.70
2022-09-04T10:07:04.338Z,25.80
2022-09-04T10:10:09.349Z,25.90
2022-09-04T10:13:06.014Z,26.10
2022-09-04T10:16:12.038Z,26.30
2022-09-04T10:19:29.323Z,26.40
2022-09-04T10:22:15.914Z,26.40
2022-09-04T10:25:10.874Z,26.50
2022-09-04T10:28:04.085Z,26.50
2022-09-04T10:30:42.703Z,26.70
2022-09-04T10:33:32.917Z,26.90
2022-09-04T10:36:13.923Z,26.90
2022-09-04T10:39:03.008Z,27.00
2022-09-04T10:41:54.364Z,27.10
2022-09-04T10:44:44.730Z,27.10
2022-09-04T10:47:28.137Z,27.30
2022-09-04T10:50:12.819Z,27.50
2022-09-04T10:53:07.878Z,27.50
2022-09-04T10:55:59.832Z,27.70
2022-09-04T10:58:48.896Z,28.00
2022-09-04T11:01:41.775Z,28.00
2022-09-04T11:04:28.405Z,28.10
2022-09-04T11:07:19.041Z,28.20
2022-09-04T11:10:27.356Z,28.30
2022-09-04T11:13:25.345Z,28.30
2022-09-04T11:16:22.951Z,28.30
2022-09-04T11:19:21.041Z,28.40
2022-09-04T11:22:20.549Z,28.40
2022-09-04T11:25:25.125Z,28.40
2022-09-04T11:28:16.016Z,28.60
2022-09-04T11:31:00.210Z,28.80
2022-09-04T11:34:09.722Z,28.60
2022-09-04T11:37:10.010Z,28.70
2022-09-04T11:40:28.238Z,28.70
2022-09-04T11:43:18.746Z,28.60
2022-09-04T11:46:13.100Z,28.70
2022-09-04T11:49:07.962Z,28.80
2022-09-04T11:52:04.020Z,28.90
2022-09-04T11:55:02.438Z,29.00
2022-09-04T11:57:41.704Z,29.10
2022-09-04T12:00:12.924Z,29.10
2022-09-04T12:03:12.949Z,29.30
2022-09-04T12:06:04.611Z,29.20
2022-09-04T12:09:05.817Z,29.30
2022-09-04T12:12:03.830Z,29.40
2022-09-04T12:14:51.061Z,29.40
2022-09-04T12:17:48.365Z,29.50
2022-09-04T12:20:49.630Z,29.60
2022-09-04T12:23:50.437Z,29.60
2022-09-04T12:26:51.211Z,29.60
2022-09-04T12:29:34.215Z,29.60
2022-09-04T12:32:37.460Z,29.40
2022-09-04T12:35:33.729Z,29.40
2022-09-04T12:38:26.469Z,29.50
2022-09-04T12:41:03.365Z,29.50
2022-09-04T12:43:45.285Z,29.60
2022-09-04T12:46:36.411Z,29.60
2022-09-04T12:49:24.513Z,29.50
2022-09-04T12:52:00.896Z,29.40
2022-09-04T12:54:37.281Z,29.30
2022-09-04T12:57:18.769Z,29.40
2022-09-04T13:00:00.989Z,29.50
2022-09-04T13:02:40.389Z,29.60
2022-09-04T13:05:52.702Z,29.70
2022-09-04T13:08:33.112Z,29.80
2022-09-04T13:11:09.763Z,29.80
2022-09-04T13:13:49.011Z,29.70
2022-09-04T13:16:22.866Z,29.70
2022-09-04T13:19:02.445Z,29.70
2022-09-04T13:21:50.057Z,29.70
2022-09-04T13:24:35.849Z,29.70
2022-09-04T13:27:16.448Z,29.90
2022-09-04T13:30:03.086Z,29.70
2022-09-04T13:32:50.923Z,29.90
2022-09-04T13:35:28.109Z,29.90
2022-09-04T13:38:16.191Z,30.00
2022-09-04T13:41:18.212Z,29.90
2022-09-04T13:44:09.537Z,30.00
2022-09-04T13:46:42.165Z,29.90
2022-09-04T13:49:14.817Z,30.00
2022-09-04T13:51:49.415Z,30.20
2022-09-04T13:54:24.815Z,30.20
2022-09-04T13:57:04.285Z,30.20
2022-09-04T13:59:33.136Z,30.00
2022-09-04T14:02:12.458Z,30.00
2022-09-04T14:04:44.546Z,30.00
2022-09-04T14:07:19.255Z,30.00
2022-09-04T14:09:52.575Z,30.00
2022-09-04T14:12:39.513Z,29.90
2022-09-04T14:15:51.582Z,29.90
2022-09-04T14:18:45.228Z,29.90
2022-09-04T14:21:24.263Z,29.90
2022-09-04T14:24:03.256Z,30.10
2022-09-04T14:26:39.929Z,29.90
2022-09-04T14:29:22.759Z,29.90
2022-09-04T14:32:04.552Z,29.90
2022-09-04T14:34:41.877Z,29.80
2022-09-04T14:37:26.288Z,29.80
2022-09-04T14:39:59.387Z,29.80
2022-09-04T14:42:42.672Z,29.80
2022-09-04T14:45:30.874Z,29.80
2022-09-04T14:48:03.682Z,29.70
2022-09-04T14:50:35.189Z,29.60
2022-09-04T14:53:05.984Z,29.60
2022-09-04T14:55:41.180Z,29.60
2022-09-04T14:58:19.505Z,29.60
2022-09-04T15:00:59.571Z,29.70
2022-09-04T15:03:32.192Z,29.70
2022-09-04T15:06:07.344Z,29.70
2022-09-04T15:08:40.650Z,29.80
2022-09-04T15:11:13.172Z,29.80
2022-09-04T15:13:52.956Z,29.70
2022-09-04T15:16:30.478Z,29.80
2022-09-04T15:19:08.539Z,29.90
2022-09-04T15:21:45.775Z,29.90
2022-09-04T15:24:21.205Z,29.90
2022-09-04T15:26:57.423Z,29.90
2022-09-04T15:29:32.115Z,29.80
2022-09-04T15:32:01.997Z,29.80
2022-09-04T15:34:32.191Z,29.70
2022-09-04T15:37:16.459Z,29.70
2022-09-04T15:39:55.511Z,29.60
2022-09-04T15:42:40.802Z,29.60
2022-09-04T15:45:20.859Z,29.60
2022-09-04T15:48:15.149Z,29.70
2022-09-04T15:50:57.537Z,29.70
2022-09-04T15:53:29.473Z,29.70
2022-09-04T15:56:10.652Z,29.60
2022-09-04T15:58:53.529Z,29.50
2022-09-04T16:01:26.822Z,29.50
2022-09-04T16:04:07.482Z,29.50
2022-09-04T16:06:43.706Z,29.50
2022-09-04T16:09:22.360Z,29.50
2022-09-04T16:12:02.545Z,29.50
2022-09-04T16:14:35.277Z,29.70
2022-09-04T16:17:17.441Z,29.80
2022-09-04T16:19:53.513Z,30.20
2022-09-04T16:22:35.003Z,30.40
2022-09-04T16:25:11.534Z,30.60
2022-09-04T16:27:46.606Z,30.60
2022-09-04T16:30:35.464Z,30.30
2022-09-04T16:33:20.464Z,30.10
2022-09-04T16:36:01.420Z,30.30
2022-09-04T16:38:33.354Z,30.40
2022-09-04T16:41:06.187Z,30.30
2022-09-04T16:43:35.413Z,30.10
2022-09-04T16:46:10.599Z,30.00
2022-09-04T16:48:48.149Z,29.70
2022-09-04T16:51:40.562Z,29.50
2022-09-04T16:54:13.451Z,29.30
2022-09-04T16:56:45.536Z,29.20
2022-09-04T16:59:23.674Z,29.30
2022-09-04T17:02:00.461Z,29.30
2022-09-04T17:04:39.733Z,29.20
2022-09-04T17:07:16.117Z,29.20
2022-09-04T17:09:56.763Z,29.20
2022-09-04T17:12:38.977Z,29.10
2022-09-04T17:15:17.535Z,29.00
2022-09-04T17:17:51.135Z,29.00
2022-09-04T17:21:01.675Z,28.90
2022-09-04T17:29:00.942Z,28.70
2022-09-04T17:29:14.873Z,28.50
2022-09-04T17:29:34.982Z,28.70
2022-09-04T17:32:03.495Z,28.90
2022-09-04T17:40:42.385Z,29.10
2022-09-04T17:40:47.773Z,29.20
2022-09-04T17:41:33.352Z,28.90
2022-09-04T17:44:04.817Z,28.80
2022-09-04T17:46:36.822Z,28.60
2022-09-04T17:49:16.965Z,28.40
2022-09-04T17:51:51.460Z,28.30
2022-09-04T17:54:34.929Z,28.10
2022-09-04T17:57:10.456Z,27.90
2022-09-04T17:59:45.675Z,27.80
2022-09-04T18:02:21.818Z,27.70
2022-09-04T18:05:00.546Z,27.50
2022-09-04T18:08:08.326Z,27.50
2022-09-04T18:10:31.441Z,27.40
2022-09-04T18:13:08.997Z,27.30
2022-09-04T18:16:07.594Z,27.20
2022-09-04T18:18:40.012Z,27.10
2022-09-04T18:21:14.464Z,27.00
2022-09-04T18:23:58.540Z,26.90
2022-09-04T18:26:41.132Z,26.90
2022-09-04T18:31:49.558Z,26.70
2022-09-04T18:37:07.259Z,26.40
2022-09-04T18:37:25.487Z,26.40
2022-09-04T18:38:46.498Z,26.40
2022-09-04T18:47:51.945Z,26.10
2022-09-04T18:50:26.066Z,25.90
2022-09-04T18:50:30.451Z,25.80
2022-09-04T18:50:45.369Z,25.90
2022-09-04T18:53:07.129Z,25.60
2022-09-04T18:55:44.173Z,25.50
2022-09-04T18:58:42.437Z,25.40
2022-09-04T19:01:27.318Z,25.30
2022-09-04T19:04:01.889Z,25.20
2022-09-04T19:06:55.779Z,25.10
2022-09-04T19:09:55.709Z,25.00
2022-09-04T19:12:35.796Z,24.90
2022-09-04T19:15:36.789Z,24.80
2022-09-04T19:18:15.690Z,24.80
2022-09-04T19:20:49.961Z,24.70
2022-09-04T19:23:27.091Z,24.60
2022-09-04T19:26:00.703Z,24.50
2022-09-04T19:28:45.709Z,24.40
2022-09-04T19:31:30.369Z,24.20
2022-09-04T19:34:04.419Z,24.10
2022-09-04T19:36:42.803Z,24.20
2022-09-04T19:45:59.278Z,24.00
2022-09-04T19:46:05.542Z,23.80
2022-09-04T19:46:19.140Z,23.90
2022-09-04T19:48:22.693Z,23.80
2022-09-04T19:53:24.262Z,23.70
2022-09-04T19:54:00.263Z,23.70
2022-09-04T19:56:35.311Z,23.50
2022-09-04T19:59:27.047Z,23.30
2022-09-04T20:02:03.047Z,23.30
2022-09-04T20:04:38.613Z,23.30
2022-09-04T20:07:20.371Z,23.30
2022-09-04T20:09:52.634Z,23.20
2022-09-04T20:12:27.670Z,23.20
2022-09-04T20:15:04.132Z,23.10
2022-09-04T20:18:08.376Z,23.20
2022-09-04T20:20:46.329Z,23.10
2022-09-04T20:23:51.881Z,23.00
2022-09-04T20:26:17.827Z,22.90
2022-09-04T20:28:55.924Z,22.90
2022-09-04T20:31:36.215Z,22.80
2022-09-04T20:34:16.570Z,22.80
2022-09-04T20:36:49.368Z,22.90
2022-09-04T20:39:24.596Z,22.80
2022-09-04T20:41:58.075Z,22.70
2022-09-04T20:44:33.098Z,22.60
2022-09-04T20:52:42.528Z,22.60
2022-09-04T20:52:56.058Z,22.60
2022-09-04T20:53:24.364Z,22.70
2022-09-04T20:56:07.832Z,22.60
2022-09-04T21:03:14.259Z,22.60
2022-09-04T21:03:17.611Z,22.50
2022-09-04T21:04:54.225Z,22.50
2022-09-04T21:07:31.050Z,22.50
2022-09-04T21:10:10.211Z,22.50
2022-09-04T21:12:47.082Z,22.40
2022-09-04T21:15:26.047Z,22.30
2022-09-04T21:18:18.111Z,22.30
2022-09-04T21:21:02.755Z,22.20
2022-09-04T21:24:03.656Z,22.10
2022-09-04T21:26:53.935Z,22.10
2022-09-04T21:29:52.628Z,22.10
2022-09-04T21:32:32.062Z,22.10
2022-09-04T21:35:08.445Z,22.10
2022-09-04T21:37:46.146Z,22.00
2022-09-04T21:40:50.174Z,21.90
2022-09-04T21:43:37.978Z,21.90
2022-09-04T21:46:28.782Z,21.80
2022-09-04T21:49:13.446Z,21.80
2022-09-04T21:52:12.036Z,21.80
2022-09-04T22:00:00.710Z,21.80
2022-09-04T22:02:36.187Z,21.70
2022-09-04T22:02:41.531Z,21.80
2022-09-04T22:04:21.107Z,21.60
2022-09-04T22:08:52.921Z,21.60
2022-09-04T22:13:29.476Z,21.60
2022-09-04T22:13:38.523Z,21.50
2022-09-04T22:16:05.938Z,21.50
2022-09-04T22:19:19.021Z,21.50
2022-09-04T22:22:03.167Z,21.50
2022-09-04T22:25:06.228Z,21.50
2022-09-04T22:28:08.773Z,21.50
2022-09-04T22:30:55.806Z,21.40
2022-09-04T22:34:16.785Z,21.40
2022-09-04T22:37:07.847Z,21.30
2022-09-04T22:40:01.118Z,21.20
2022-09-04T22:42:41.664Z,21.20
2022-09-04T22:45:36.223Z,21.10
2022-09-04T22:48:27.810Z,21.10
2022-09-04T22:51:13.918Z,20.90
2022-09-04T22:54:06.961Z,21.00
2022-09-04T22:56:52.918Z,20.90
2022-09-04T22:59:43.589Z,20.90
2022-09-04T23:03:08.266Z,20.80
2022-09-04T23:07:45.706Z,20.80
2022-09-04T23:13:54.846Z,20.70
2022-09-04T23:13:56.901Z,20.60
2022-09-04T23:15:47.414Z,20.50
2022-09-04T23:22:03.902Z,20.40
2022-09-04T23:26:37.041Z,20.40
2022-09-04T23:26:42.365Z,20.30
2022-09-04T23:27:44.145Z,20.30
2022-09-04T23:30:25.487Z,20.30
2022-09-04T23:33:38.041Z,20.20
2022-09-04T23:36:48.863Z,20.20
2022-09-04T23:40:01.879Z,20.20
2022-09-04T23:42:50.728Z,20.20
2022-09-04T23:45:52.810Z,20.10
2022-09-04T23:48:52.031Z,20.20
2022-09-04T23:51:30.146Z,20.20
2022-09-04T23:54:24.845Z,20.30
2022-09-04T23:57:00.867Z,20.10
2022-09-04T23:59:45.042Z,20.20
